createdAt,value
2023-02-16T00:01:51.168Z,100059.53
2023-02-16T00:04:20.330Z,100063.19
2023-02-16T00:06:47.607Z,100074.78
2023-02-16T00:09:14.297Z,100070.75
2023-02-16T00:11:43.044Z,100076.34
2023-02-16T00:14:11.492Z,100082.75
2023-02-16T00:16:38.278Z,100072.25
2023-02-16T00:19:20.243Z,100074.13
2023-02-16T00:21:47.377Z,100081.56
2023-02-16T00:24:14.294Z,100082.66
2023-02-16T00:26:43.895Z,100092.56
2023-02-16T00:29:16.926Z,100076.94
2023-02-16T00:31:43.544Z,100082.06
2023-02-16T00:34:27.493Z,100076.22
2023-02-16T00:36:55.050Z,100076.47
2023-02-16T00:39:21.759Z,100076.72
2023-02-16T00:41:49.712Z,100074.34
2023-02-16T00:44:17.870Z,100063.91
2023-02-16T00:46:45.956Z,100050.75
2023-02-16T00:49:14.220Z,100054.78
2023-02-16T00:51:41.096Z,100050.59
2023-02-16T00:54:07.798Z,100047.69
2023-02-16T00:56:34.939Z,100046.06
2023-02-16T00:59:04.944Z,100045.25
2023-02-16T01:01:33.127Z,100033.22
2023-02-16T01:04:02.026Z,100034.75
2023-02-16T01:06:28.753Z,100031.38
2023-02-16T01:09:00.922Z,100046.75
2023-02-16T01:11:27.951Z,100051.88
2023-02-16T01:13:55.906Z,100051.88
2023-02-16T01:16:26.873Z,100055.06
2023-02-16T01:18:53.898Z,100052.38
2023-02-16T01:21:20.811Z,100058.44
2023-02-16T01:23:47.762Z,100069.25
2023-02-16T01:26:18.135Z,100062.03
2023-02-16T01:28:45.159Z,100068.19
2023-02-16T01:31:12.975Z,100059.59
2023-02-16T01:33:41.457Z,100064.47
2023-02-16T01:36:22.456Z,100051.88
2023-02-16T01:38:49.012Z,100045.72
2023-02-16T01:41:25.007Z,100035.00
2023-02-16T01:43:56.595Z,100059.59
2023-02-16T01:46:29.772Z,100060.97
2023-02-16T01:48:57.698Z,100056.41
2023-02-16T01:51:28.344Z,100048.66
2023-02-16T01:54:04.243Z,100040.28
2023-02-16T01:56:35.592Z,100042.13
2023-02-16T01:59:10.247Z,100042.47
2023-02-16T02:01:41.542Z,100029.63
2023-02-16T02:04:27.198Z,100032.31
2023-02-16T02:06:53.857Z,100014.63
2023-02-16T02:09:27.645Z,100011.94
2023-02-16T02:12:00.654Z,100014.63
2023-02-16T02:14:31.415Z,100014.06
2023-02-16T02:17:01.062Z,100003.81
2023-02-16T02:19:30.901Z,99996.84
2023-02-16T02:22:21.955Z,100004.88
2023-02-16T02:25:32.274Z,100000.66
2023-02-16T02:28:08.527Z,99984.25
2023-02-16T02:30:46.387Z,99978.00
2023-02-16T02:33:33.115Z,99973.59
2023-02-16T02:36:14.743Z,99985.94
2023-02-16T02:38:52.936Z,99984.81
2023-02-16T02:41:27.752Z,99976.03
2023-02-16T02:43:59.297Z,99963.47
2023-02-16T02:46:30.397Z,99967.19
2023-02-16T02:48:57.065Z,99973.59
2023-02-16T02:51:23.649Z,99969.28
2023-02-16T02:53:53.374Z,99979.78
2023-02-16T02:56:20.430Z,99978.72
2023-02-16T02:58:50.719Z,99980.34
2023-02-16T03:01:20.604Z,99977.91
2023-02-16T03:03:51.147Z,99973.94
2023-02-16T03:06:23.107Z,99966.13
2023-02-16T03:08:54.942Z,99958.34
2023-02-16T03:11:23.943Z,99981.63
2023-02-16T03:13:54.681Z,99977.47
2023-02-16T03:16:27.552Z,99979.34
2023-02-16T03:18:56.790Z,99983.06
2023-02-16T03:21:25.894Z,99968.88
2023-02-16T03:23:54.556Z,99972.88
2023-02-16T03:26:22.062Z,99977.16
2023-02-16T03:28:51.132Z,99981.94
2023-02-16T03:31:21.790Z,99981.13
2023-02-16T03:33:51.787Z,99981.59
2023-02-16T03:36:18.447Z,99982.91
2023-02-16T03:38:45.086Z,99980.69
2023-02-16T03:41:11.653Z,99993.50
2023-02-16T03:43:38.437Z,99994.66
2023-02-16T03:46:05.251Z,99998.63
2023-02-16T03:48:31.792Z,99994.56
2023-02-16T03:50:59.679Z,99996.66
2023-02-16T03:53:26.281Z,99990.16
2023-02-16T03:55:53.147Z,100006.69
2023-02-16T03:58:22.032Z,99996.72
2023-02-16T04:00:49.144Z,99995.09
2023-02-16T04:03:16.410Z,99996.13
2023-02-16T04:05:43.488Z,100000.56
2023-02-16T04:08:12.210Z,100000.09
2023-02-16T04:10:39.203Z,99993.69
2023-02-16T04:13:06.191Z,100002.75
2023-02-16T04:15:33.332Z,99994.50
2023-02-16T04:18:00.285Z,100008.09
2023-02-16T04:20:28.658Z,99993.59
2023-02-16T04:22:55.825Z,99975.41
2023-02-16T04:25:23.959Z,99972.28
2023-02-16T04:27:51.825Z,99973.91
2023-02-16T04:30:21.280Z,99983.44
2023-02-16T04:32:48.198Z,99977.53
2023-02-16T04:35:15.570Z,99986.94
2023-02-16T04:37:42.457Z,99977.84
2023-02-16T04:40:10.791Z,99978.09
2023-02-16T04:42:38.919Z,99972.66
2023-02-16T04:45:06.392Z,99978.81
2023-02-16T04:47:32.948Z,99974.75
2023-02-16T04:49:59.558Z,99975.94
2023-02-16T04:52:26.113Z,99985.00
2023-02-16T04:54:52.648Z,99978.84
2023-02-16T04:57:19.232Z,99974.31
2023-02-16T04:59:47.283Z,99977.56
2023-02-16T05:02:13.867Z,99985.25
2023-02-16T05:04:40.743Z,99975.59
2023-02-16T05:07:07.420Z,99967.56
2023-02-16T05:09:34.038Z,99979.06
2023-02-16T05:12:00.608Z,99983.59
2023-02-16T05:14:31.246Z,99974.31
2023-02-16T05:16:59.194Z,99969.53
2023-02-16T05:19:25.869Z,99968.50
2023-02-16T05:21:52.373Z,99960.94
2023-02-16T05:24:18.921Z,99960.94
2023-02-16T05:26:45.488Z,99961.16
2023-02-16T05:29:12.198Z,99965.81
2023-02-16T05:31:38.863Z,99966.63
2023-02-16T05:34:06.907Z,99980.59
2023-02-16T05:36:33.492Z,99973.63
2023-02-16T05:39:00.101Z,99970.13
2023-02-16T05:41:26.594Z,99970.44
2023-02-16T05:43:54.958Z,99970.69
2023-02-16T05:46:23.132Z,99968.81
2023-02-16T05:48:50.514Z,99969.78
2023-02-16T05:51:19.030Z,99966.28
2023-02-16T05:53:46.087Z,99962.31
2023-02-16T05:56:13.668Z,99959.06
2023-02-16T05:58:40.549Z,99959.41
2023-02-16T06:01:07.172Z,99966.63
2023-02-16T06:03:34.209Z,99965.00
2023-02-16T06:06:01.727Z,99980.47
2023-02-16T06:08:30.587Z,99982.56
2023-02-16T06:10:57.665Z,99986.06
2023-02-16T06:13:24.918Z,99979.06
2023-02-16T06:15:52.741Z,99988.97
2023-02-16T06:18:19.453Z,99982.00
2023-02-16T06:20:46.481Z,99983.38
2023-02-16T06:23:13.722Z,99994.09
2023-02-16T06:25:43.345Z,100005.59
2023-02-16T06:28:10.307Z,100000.47
2023-02-16T06:30:37.110Z,99995.25
2023-02-16T06:33:04.064Z,99993.03
2023-02-16T06:35:30.988Z,100003.50
2023-02-16T06:37:57.576Z,99992.81
2023-02-16T06:40:24.134Z,99996.28
2023-02-16T06:42:52.040Z,100003.84
2023-02-16T06:45:18.865Z,100000.09
2023-02-16T06:47:45.413Z,100006.03
2023-02-16T06:50:12.214Z,100006.84
2023-02-16T06:52:38.757Z,99999.06
2023-02-16T06:55:05.775Z,99998.00
2023-02-16T06:57:32.476Z,100009.75
2023-02-16T07:00:00.476Z,100005.00
2023-02-16T07:02:27.128Z,100013.38
2023-02-16T07:04:53.745Z,100004.31
2023-02-16T07:07:20.562Z,99997.91
2023-02-16T07:09:47.337Z,99998.13
2023-02-16T07:12:13.999Z,99996.00
2023-02-16T07:14:42.013Z,99998.81
2023-02-16T07:17:11.061Z,99990.56
2023-02-16T07:19:37.933Z,99997.56
2023-02-16T07:22:04.557Z,100001.63
2023-02-16T07:24:31.305Z,100012.06
2023-02-16T07:27:00.807Z,100013.47
2023-02-16T07:29:27.658Z,100008.59
2023-02-16T07:31:54.278Z,100012.88
2023-02-16T07:34:22.243Z,100005.94
2023-02-16T07:36:48.775Z,100009.75
2023-02-16T07:39:15.694Z,100001.13
2023-02-16T07:41:42.515Z,100006.09
2023-02-16T07:44:09.201Z,100011.00
2023-02-16T07:46:35.811Z,100002.72
2023-02-16T07:49:02.509Z,99998.19
2023-02-16T07:51:31.690Z,100014.03
2023-02-16T07:53:59.730Z,100009.72
2023-02-16T07:56:29.169Z,100022.03
2023-02-16T07:58:57.050Z,100015.97
2023-02-16T08:01:24.851Z,100006.53
2023-02-16T08:03:51.983Z,100021.66
2023-02-16T08:06:18.775Z,100016.09
2023-02-16T08:08:46.833Z,100018.25
2023-02-16T08:11:15.802Z,100021.63
2023-02-16T08:13:42.880Z,100021.94
2023-02-16T08:16:10.296Z,100020.03
2023-02-16T08:18:37.077Z,100028.09
2023-02-16T08:21:08.286Z,100022.56
2023-02-16T08:23:34.930Z,100022.00
2023-02-16T08:26:09.053Z,100030.59
2023-02-16T08:28:35.634Z,100021.19
2023-02-16T08:31:02.994Z,100018.03
2023-02-16T08:33:29.651Z,100021.13
2023-02-16T08:35:56.259Z,100016.59
2023-02-16T08:38:22.843Z,100029.50
2023-02-16T08:40:49.996Z,100024.97
2023-02-16T08:43:18.117Z,100017.16
2023-02-16T08:45:45.815Z,100030.06
2023-02-16T08:48:13.429Z,100034.94
2023-02-16T08:50:43.603Z,100020.69
2023-02-16T08:53:10.355Z,100024.63
2023-02-16T08:55:36.911Z,100024.81
2023-02-16T08:58:03.684Z,100016.44
2023-02-16T09:00:31.695Z,100030.53
2023-02-16T09:02:58.884Z,100028.66
2023-02-16T09:05:25.497Z,100026.63
2023-02-16T09:07:52.074Z,100021.84
2023-02-16T09:10:18.917Z,100024.91
2023-02-16T09:12:45.515Z,100026.78
2023-02-16T09:15:12.172Z,100030.53
2023-02-16T09:17:40.077Z,100027.03
2023-02-16T09:20:07.885Z,100025.41
2023-02-16T09:22:34.509Z,100031.97
2023-02-16T09:25:01.104Z,100027.03
2023-02-16T09:27:27.666Z,100034.66
2023-02-16T09:29:54.315Z,100033.38
2023-02-16T09:32:20.897Z,100035.03
2023-02-16T09:34:48.811Z,100038.22
2023-02-16T09:37:15.533Z,100047.47
2023-02-16T09:39:42.205Z,100051.69
2023-02-16T09:42:22.176Z,100048.75
2023-02-16T09:44:56.197Z,100043.97
2023-02-16T09:47:25.987Z,100037.34
2023-02-16T09:49:54.209Z,100040.38
2023-02-16T09:52:26.484Z,100045.84
2023-02-16T09:54:54.868Z,100047.00
2023-02-16T09:57:38.067Z,100043.88
2023-02-16T10:00:14.889Z,100041.44
2023-02-16T10:02:50.307Z,100034.13
2023-02-16T10:05:23.800Z,100023.53
2023-02-16T10:08:01.862Z,100034.59
2023-02-16T10:10:36.664Z,100033.56
2023-02-16T10:13:09.777Z,100034.69
2023-02-16T10:15:41.179Z,100029.75
2023-02-16T10:18:17.949Z,100022.97
2023-02-16T10:20:49.940Z,100010.44
2023-02-16T10:23:29.811Z,100016.56
2023-02-16T10:26:00.349Z,100029.09
2023-02-16T10:28:35.934Z,100017.94
2023-02-16T10:31:11.306Z,100025.00
2023-02-16T10:33:42.742Z,100020.56
2023-02-16T10:36:16.094Z,100022.81
2023-02-16T10:38:51.202Z,100019.56
2023-02-16T10:41:27.387Z,100014.19
2023-02-16T10:44:01.066Z,100016.13
2023-02-16T10:46:31.995Z,100013.84
2023-02-16T10:49:00.040Z,100016.16
2023-02-16T10:51:33.529Z,100010.78
2023-02-16T10:54:04.618Z,100000.03
2023-02-16T10:56:45.324Z,99997.72
2023-02-16T10:59:15.781Z,99998.16
2023-02-16T11:01:45.092Z,99999.56
2023-02-16T11:04:31.160Z,99997.75
2023-02-16T11:07:04.263Z,100004.72
2023-02-16T11:09:30.882Z,99993.47
2023-02-16T11:11:57.491Z,99992.69
2023-02-16T11:14:26.688Z,99976.56
2023-02-16T11:17:04.018Z,99980.94
2023-02-16T11:19:31.237Z,99976.59
2023-02-16T11:21:57.939Z,99978.22
2023-02-16T11:24:27.816Z,99973.38
2023-02-16T11:27:03.968Z,99961.50
2023-02-16T11:29:30.894Z,99962.03
2023-02-16T11:31:58.516Z,99966.53
2023-02-16T11:34:32.823Z,99964.63
2023-02-16T11:37:07.082Z,99955.97
2023-02-16T11:39:38.373Z,99960.31
2023-02-16T11:42:08.567Z,99961.56
2023-02-16T11:44:38.094Z,99962.50
2023-02-16T11:47:07.436Z,99967.94
2023-02-16T11:49:36.400Z,99966.91
2023-02-16T11:52:20.316Z,99974.84
2023-02-16T11:54:50.948Z,99963.16
2023-02-16T11:57:24.331Z,99961.16
2023-02-16T11:59:51.269Z,99973.63
2023-02-16T12:02:43.347Z,99969.56
2023-02-16T12:05:23.477Z,99963.59
2023-02-16T12:08:05.142Z,99968.00
2023-02-16T12:10:41.110Z,99956.91
2023-02-16T12:13:18.156Z,99957.34
2023-02-16T12:15:49.648Z,99961.16
2023-02-16T12:18:27.251Z,99949.56
2023-02-16T12:20:59.051Z,99961.31
2023-02-16T12:23:36.652Z,99951.72
2023-02-16T12:26:34.125Z,99948.16
2023-02-16T12:29:12.771Z,99946.75
2023-02-16T12:32:06.595Z,99945.47
2023-02-16T12:34:49.321Z,99944.59
2023-02-16T12:37:25.790Z,99938.38
2023-02-16T12:40:03.257Z,99938.03
2023-02-16T12:42:51.448Z,99938.13
2023-02-16T12:45:21.848Z,99937.50
2023-02-16T12:47:57.326Z,99931.44
2023-02-16T12:50:29.099Z,99936.06
2023-02-16T12:52:59.424Z,99933.72
2023-02-16T12:55:29.367Z,99925.25
2023-02-16T12:58:09.389Z,99922.75
2023-02-16T13:00:43.631Z,99923.00
2023-02-16T13:03:22.457Z,99908.44
2023-02-16T13:05:53.312Z,99908.78
2023-02-16T13:08:29.107Z,99913.97
2023-02-16T13:11:03.588Z,99908.56
2023-02-16T13:13:34.456Z,99903.97
2023-02-16T13:16:12.930Z,99903.16
2023-02-16T13:18:49.008Z,99904.53
2023-02-16T13:21:50.532Z,99899.50
2023-02-16T13:24:32.077Z,99886.50
2023-02-16T13:27:19.762Z,99885.53
2023-02-16T13:29:59.737Z,99875.81
2023-02-16T13:32:43.146Z,99882.59
2023-02-16T13:35:23.382Z,99874.53
2023-02-16T13:38:09.559Z,99874.28
2023-02-16T13:41:12.700Z,99866.72
2023-02-16T13:43:41.937Z,99870.22
2023-02-16T13:46:15.604Z,99861.56
2023-02-16T13:48:47.424Z,99863.72
2023-02-16T13:51:17.841Z,99862.69
2023-02-16T13:53:54.424Z,99864.28
2023-02-16T13:56:32.074Z,99864.56
2023-02-16T13:59:20.002Z,99861.56
2023-02-16T14:01:48.556Z,99859.41
2023-02-16T14:04:48.343Z,99857.25
2023-02-16T14:07:31.532Z,99862.66
2023-02-16T14:09:58.072Z,99863.44
2023-02-16T14:12:29.224Z,99858.06
2023-02-16T14:14:59.366Z,99856.41
2023-02-16T14:17:33.863Z,99852.88
2023-02-16T14:20:03.292Z,99859.34
2023-02-16T14:22:37.831Z,99865.63
2023-02-16T14:25:22.440Z,99860.25
2023-02-16T14:27:51.282Z,99859.72
2023-02-16T14:30:27.072Z,99858.97
2023-02-16T14:33:01.199Z,99846.81
2023-02-16T14:35:31.023Z,99846.81
2023-02-16T14:37:59.145Z,99846.56
2023-02-16T14:40:47.646Z,99858.97
2023-02-16T14:43:33.136Z,99859.78
2023-02-16T14:46:21.357Z,99858.47
2023-02-16T14:49:21.304Z,99857.13
2023-02-16T14:52:34.760Z,99853.59
2023-02-16T14:55:37.717Z,99851.22
2023-02-16T14:58:16.484Z,99849.03
2023-02-16T15:00:47.958Z,99842.03
2023-02-16T15:03:18.244Z,99832.34
2023-02-16T15:05:55.706Z,99818.31
2023-02-16T15:08:25.072Z,99793.25
2023-02-16T15:10:53.327Z,99799.41
2023-02-16T15:13:21.663Z,99793.78
2023-02-16T15:15:51.635Z,99804.56
2023-02-16T15:18:21.750Z,99790.78
2023-02-16T15:20:51.747Z,99779.44
2023-02-16T15:23:20.468Z,99775.09
2023-02-16T15:25:55.251Z,99780.22
2023-02-16T15:28:24.387Z,99781.31
2023-02-16T15:30:54.471Z,99777.53
2023-02-16T15:33:34.371Z,99779.13
2023-02-16T15:36:05.327Z,99772.41
2023-02-16T15:38:34.362Z,99778.88
2023-02-16T15:41:03.314Z,99775.41
2023-02-16T15:43:33.998Z,99774.34
2023-02-16T15:46:03.310Z,99771.94
2023-02-16T15:48:31.439Z,99767.38
2023-02-16T15:51:08.470Z,99764.66
2023-02-16T15:53:41.553Z,99762.78
2023-02-16T15:56:22.491Z,99754.97
2023-02-16T15:58:49.229Z,99760.63
2023-02-16T16:01:31.255Z,99754.44
2023-02-16T16:03:59.535Z,99758.47
2023-02-16T16:06:33.395Z,99746.91
2023-02-16T16:09:01.063Z,99748.25
2023-02-16T16:11:27.988Z,99745.53
2023-02-16T16:13:54.706Z,99745.28
2023-02-16T16:16:21.570Z,99732.88
2023-02-16T16:18:52.602Z,99740.16
2023-02-16T16:21:22.934Z,99746.34
2023-02-16T16:23:56.733Z,99746.34
2023-02-16T16:26:24.110Z,99750.09
2023-02-16T16:28:51.147Z,99748.75
2023-02-16T16:31:48.357Z,99761.72
2023-02-16T16:34:33.599Z,99756.34
2023-02-16T16:37:01.418Z,99759.28
2023-02-16T16:39:31.127Z,99755.78
2023-02-16T16:42:20.392Z,99768.19
2023-02-16T16:44:59.482Z,99768.44
2023-02-16T16:47:30.906Z,99774.91
2023-02-16T16:50:00.235Z,99772.19
2023-02-16T16:52:35.446Z,99771.69
2023-02-16T16:55:25.958Z,99762.78
2023-02-16T16:57:54.420Z,99775.69
2023-02-16T17:00:23.044Z,99771.13
2023-02-16T17:02:49.888Z,99773.28
2023-02-16T17:05:16.679Z,99781.66
2023-02-16T17:07:43.490Z,99774.91
2023-02-16T17:10:11.467Z,99783.53
2023-02-16T17:12:38.308Z,99776.53
2023-02-16T17:15:07.658Z,99778.41
2023-02-16T17:17:34.487Z,99773.03
2023-02-16T17:20:01.315Z,99775.44
2023-02-16T17:22:27.922Z,99780.03
2023-02-16T17:24:54.473Z,99780.84
2023-02-16T17:27:22.382Z,99775.72
2023-02-16T17:29:49.082Z,99773.56
2023-02-16T17:32:15.732Z,99777.34
2023-02-16T17:34:42.345Z,99785.97
2023-02-16T17:37:10.660Z,99784.06
2023-02-16T17:39:37.361Z,99789.19
2023-02-16T17:42:04.449Z,99789.75
2023-02-16T17:44:32.323Z,99800.22
2023-02-16T17:46:58.989Z,99805.09
2023-02-16T17:49:25.733Z,99807.25
2023-02-16T17:51:54.151Z,99803.75
2023-02-16T17:54:21.217Z,99804.00
2023-02-16T17:56:48.170Z,99807.25
2023-02-16T17:59:15.156Z,99800.50
2023-02-16T18:01:43.791Z,99797.53
2023-02-16T18:04:10.472Z,99798.91
2023-02-16T18:06:37.447Z,99794.31
2023-02-16T18:09:04.544Z,99787.88
2023-02-16T18:11:31.265Z,99791.09
2023-02-16T18:13:57.942Z,99782.75
2023-02-16T18:16:27.184Z,99784.38
2023-02-16T18:18:55.485Z,99778.72
2023-02-16T18:21:22.148Z,99771.44
2023-02-16T18:23:48.767Z,99773.06
2023-02-16T18:26:16.618Z,99765.50
2023-02-16T18:28:43.899Z,99762.03
2023-02-16T18:31:10.777Z,99757.97
2023-02-16T18:33:37.529Z,99759.03
2023-02-16T18:36:06.808Z,99760.66
2023-02-16T18:38:33.510Z,99760.13
2023-02-16T18:41:00.088Z,99766.34
2023-02-16T18:43:26.722Z,99761.47
2023-02-16T18:45:53.363Z,99754.72
2023-02-16T18:48:19.947Z,99765.50
2023-02-16T18:50:46.574Z,99760.09
2023-02-16T18:53:14.831Z,99754.22
2023-02-16T18:55:41.542Z,99748.81
2023-02-16T18:58:08.671Z,99752.03
2023-02-16T19:00:35.930Z,99749.06
2023-02-16T19:03:03.002Z,99752.84
2023-02-16T19:05:29.745Z,99751.50
2023-02-16T19:07:56.383Z,99746.09
2023-02-16T19:10:24.337Z,99737.22
2023-02-16T19:12:51.100Z,99734.50
2023-02-16T19:15:17.964Z,99728.31
2023-02-16T19:17:44.655Z,99737.44
2023-02-16T19:20:12.118Z,99734.16
2023-02-16T19:22:38.746Z,99734.13
2023-02-16T19:25:06.153Z,99723.91
2023-02-16T19:27:35.102Z,99728.97
2023-02-16T19:30:02.144Z,99731.69
2023-02-16T19:32:29.413Z,99725.41
2023-02-16T19:34:56.015Z,99734.53
2023-02-16T19:40:50.674Z,99712.34
2023-02-16T19:43:18.720Z,99723.09
2023-02-16T19:45:45.389Z,99714.69
2023-02-16T19:48:12.022Z,99718.88
2023-02-16T19:50:38.736Z,99718.00
2023-02-16T19:53:05.381Z,99706.09
2023-02-16T19:55:33.442Z,99713.59
2023-02-16T19:57:59.990Z,99713.59
2023-02-16T20:00:28.011Z,99700.66
2023-02-16T20:02:54.606Z,99694.69
2023-02-16T20:05:21.256Z,99703.47
2023-02-16T20:07:47.831Z,99689.13
2023-02-16T20:12:54.790Z,99698.66
2023-02-16T20:15:21.529Z,99703.16
2023-02-16T20:17:49.500Z,99702.88
2023-02-16T20:20:16.386Z,99698.53
2023-02-16T20:22:42.981Z,99703.41
2023-02-16T20:25:09.709Z,99697.72
2023-02-16T20:27:36.326Z,99702.81
2023-02-16T20:30:03.996Z,99696.09
2023-02-16T20:32:30.610Z,99689.00
2023-02-16T20:34:58.918Z,99671.13
2023-02-16T20:37:25.471Z,99670.03
2023-02-16T20:39:52.063Z,99679.97
2023-02-16T20:42:18.700Z,99676.47
2023-02-16T20:44:45.279Z,99674.38
2023-02-16T20:47:11.866Z,99675.09
2023-02-16T20:49:38.618Z,99670.78
2023-02-16T20:52:06.646Z,99665.25
2023-02-16T20:54:33.343Z,99663.88
2023-02-16T20:56:59.902Z,99664.84
2023-02-16T20:59:26.610Z,99658.19
2023-02-16T21:01:53.261Z,99654.41
2023-02-16T21:04:20.644Z,99662.50
2023-02-16T21:06:47.478Z,99658.94
2023-02-16T21:09:16.029Z,99665.53
2023-02-16T21:11:42.736Z,99659.59
2023-02-16T21:14:11.729Z,99660.03
2023-02-16T21:16:38.501Z,99664.13
2023-02-16T21:19:11.683Z,99653.25
2023-02-16T21:21:43.861Z,99647.25
2023-02-16T21:24:10.446Z,99645.72
2023-02-16T21:26:38.395Z,99643.81
2023-02-16T21:29:04.956Z,99657.66
2023-02-16T21:31:31.914Z,99657.75
2023-02-16T21:33:58.515Z,99644.69
2023-02-16T21:36:26.211Z,99649.75
2023-02-16T21:38:53.294Z,99654.38
2023-02-16T21:41:22.091Z,99653.03
2023-02-16T21:43:50.534Z,99643.44
2023-02-16T21:46:17.272Z,99637.00
2023-02-16T21:48:43.979Z,99638.09
2023-02-16T21:51:10.797Z,99634.59
2023-02-16T21:53:37.375Z,99635.06
2023-02-16T21:56:05.180Z,99635.56
2023-02-16T21:58:33.551Z,99629.03
2023-02-16T22:01:01.444Z,99640.50
2023-02-16T22:03:28.312Z,99629.75
2023-02-16T22:05:54.908Z,99632.19
2023-02-16T22:08:21.569Z,99632.25
2023-02-16T22:10:48.102Z,99628.28
2023-02-16T22:13:14.658Z,99619.38
2023-02-16T22:15:41.254Z,99615.50
2023-02-16T22:18:09.179Z,99621.22
2023-02-16T22:20:35.783Z,99623.69
2023-02-16T22:23:02.462Z,99608.47
2023-02-16T22:25:28.998Z,99624.44
2023-02-16T22:27:55.994Z,99619.59
2023-02-16T22:30:22.647Z,99611.09
2023-02-16T22:32:49.550Z,99621.41
2023-02-16T22:35:17.829Z,99628.72
2023-02-16T22:37:44.392Z,99625.53
2023-02-16T22:40:11.161Z,99617.88
2023-02-16T22:42:37.792Z,99612.78
2023-02-16T22:45:04.972Z,99618.56
2023-02-16T22:47:31.591Z,99629.72
2023-02-16T22:49:59.400Z,99618.06
2023-02-16T22:52:27.452Z,99614.19
2023-02-16T22:54:54.058Z,99619.97
2023-02-16T22:57:20.696Z,99623.69
2023-02-16T22:59:47.396Z,99623.16
2023-02-16T23:02:13.979Z,99612.66
2023-02-16T23:04:43.212Z,99620.47
2023-02-16T23:07:10.162Z,99609.63
2023-02-16T23:09:38.525Z,99607.59
2023-02-16T23:12:05.202Z,99600.56
2023-02-16T23:14:31.741Z,99599.56
2023-02-16T23:16:58.340Z,99595.16
2023-02-16T23:19:26.614Z,99593.56
2023-02-16T23:21:53.778Z,99588.72
2023-02-16T23:24:22.629Z,99585.00
2023-02-16T23:26:50.936Z,99585.88
2023-02-16T23:29:17.760Z,99590.56
2023-02-16T23:31:46.194Z,99590.78
2023-02-16T23:34:13.969Z,99587.28
2023-02-16T23:36:40.660Z,99581.94
2023-02-16T23:39:09.766Z,99586.97
2023-02-16T23:41:36.796Z,99581.34
2023-02-16T23:44:05.405Z,99572.63
2023-02-16T23:46:32.523Z,99575.06
2023-02-16T23:48:59.431Z,99556.31
2023-02-16T23:51:26.663Z,99552.09
2023-02-16T23:53:53.499Z,99545.88
2023-02-16T23:56:22.589Z,99551.69
2023-02-16T23:58:49.682Z,99542.56
